DAH2070 DAAG-EDDF
Flight info
| Callsign | DAH2070 |
|---|---|
| Flight time | 2h 22m |
| Altitude | 36000 |
| Route | PECES N853 LUMAS DCT SOSUR DCT SECON DCT ODIXU DCT MAXIR DCT LUSOL DCT BODRU DCT OKTET DCT IRMAR DCT KINES DCT VANAS DCT MOBLO DCT UBIMA DCT SOSAL DCT KORED DCT BERSU DCT DITON/N0453F370 DCT LADOL/N0452F360 T163 EMPAX EMPAX5C |
| Aircraft | B738/M-SDE2E3FGHIRWXY/LB1 |
Departure
| Time | 2026-05-08 16:40 |
|---|---|
| Airport | Houari Boumediene Airport (DAAG) |
Arrival
| Time | 2026-05-08 19:02 |
|---|---|
| Airport | Frankfurt Main Airport (EDDF) |
| Time | Latitude | Longitude | Altitude | Speed | Heading |
|---|---|---|---|---|---|
| 2026-05-08 16:31 | 36.69388 | 3.20062 | 69 ft | 0 kts | 181° |
| 2026-05-08 16:36 | 36.69384 | 3.20062 | 69 ft | 2 kts | 181° |
| 2026-05-08 16:37 | 36.69342 | 3.20060 | 69 ft | 9 kts | 188° |
| 2026-05-08 16:37 | 36.69305 | 3.19975 | 66 ft | 16 kts | 271° |
| 2026-05-08 16:37 | 36.69309 | 3.19807 | 69 ft | 23 kts | 271° |
| 2026-05-08 16:37 | 36.69315 | 3.19596 | 69 ft | 25 kts | 272° |
| 2026-05-08 16:38 | 36.69320 | 3.19373 | 61 ft | 25 kts | 272° |
| 2026-05-08 16:38 | 36.69325 | 3.19162 | 70 ft | 23 kts | 271° |
| 2026-05-08 16:38 | 36.69329 | 3.18960 | 70 ft | 24 kts | 271° |
| 2026-05-08 16:38 | 36.69334 | 3.18754 | 70 ft | 23 kts | 271° |
| 2026-05-08 16:39 | 36.69339 | 3.18555 | 70 ft | 23 kts | 272° |
| 2026-05-08 16:39 | 36.69259 | 3.18427 | 73 ft | 22 kts | 182° |
| 2026-05-08 16:39 | 36.69171 | 3.18469 | 77 ft | 13 kts | 86° |
| 2026-05-08 16:39 | 36.69167 | 3.18672 | 77 ft | 56 kts | 91° |
| 2026-05-08 16:40 | 36.69149 | 3.19537 | 73 ft | 141 kts | 91° |
| 2026-05-08 16:40 | 36.69108 | 3.21004 | 431 ft | 184 kts | 91° |
| 2026-05-08 16:40 | 36.69186 | 3.22637 | 1421 ft | 195 kts | 69° |
| 2026-05-08 16:40 | 36.69881 | 3.24011 | 2452 ft | 189 kts | 39° |
| 2026-05-08 16:41 | 36.71051 | 3.24781 | 3122 ft | 199 kts | 20° |
| 2026-05-08 16:41 | 36.72424 | 3.25298 | 3456 ft | 217 kts | 18° |
| 2026-05-08 16:41 | 36.73947 | 3.25864 | 3621 ft | 240 kts | 17° |
| 2026-05-08 16:42 | 36.77431 | 3.27166 | 4211 ft | 280 kts | 17° |
| 2026-05-08 16:42 | 36.79300 | 3.27872 | 4897 ft | 285 kts | 17° |
| 2026-05-08 16:42 | 36.81214 | 3.28599 | 5636 ft | 289 kts | 15° |
| 2026-05-08 16:42 | 36.83166 | 3.29345 | 6310 ft | 296 kts | 14° |
| 2026-05-08 16:43 | 36.85133 | 3.30100 | 7000 ft | 299 kts | 14° |
| 2026-05-08 16:43 | 36.87127 | 3.30871 | 7733 ft | 301 kts | 14° |
| 2026-05-08 16:43 | 36.89136 | 3.31649 | 8428 ft | 304 kts | 14° |
| 2026-05-08 16:43 | 36.91163 | 3.32437 | 9157 ft | 307 kts | 14° |
| 2026-05-08 16:44 | 36.93213 | 3.33235 | 9859 ft | 310 kts | 14° |
| 2026-05-08 16:44 | 36.95298 | 3.34046 | 10356 ft | 321 kts | 14° |
| 2026-05-08 16:44 | 36.97512 | 3.34906 | 10511 ft | 343 kts | 14° |
| 2026-05-08 16:44 | 36.99864 | 3.35820 | 10675 ft | 364 kts | 14° |
| 2026-05-08 16:45 | 37.02324 | 3.36780 | 11059 ft | 375 kts | 14° |
| 2026-05-08 16:45 | 37.04831 | 3.37762 | 11641 ft | 379 kts | 14° |
| 2026-05-08 16:45 | 37.07325 | 3.38743 | 12300 ft | 381 kts | 14° |
| 2026-05-08 16:45 | 37.09865 | 3.39741 | 12941 ft | 385 kts | 14° |
| 2026-05-08 16:46 | 37.12444 | 3.40755 | 13578 ft | 389 kts | 14° |
| 2026-05-08 16:46 | 37.15045 | 3.41777 | 14172 ft | 393 kts | 13° |
| 2026-05-08 16:46 | 37.17669 | 3.42808 | 14792 ft | 396 kts | 13° |
| 2026-05-08 16:46 | 37.20314 | 3.43849 | 15460 ft | 399 kts | 13° |
| 2026-05-08 16:47 | 37.22941 | 3.44883 | 16091 ft | 401 kts | 13° |
| 2026-05-08 16:47 | 37.25625 | 3.45940 | 16703 ft | 405 kts | 13° |
| 2026-05-08 16:47 | 37.28334 | 3.47007 | 17299 ft | 409 kts | 12° |
| 2026-05-08 16:47 | 37.31064 | 3.48083 | 17896 ft | 412 kts | 12° |
| 2026-05-08 16:48 | 37.33789 | 3.49158 | 18441 ft | 416 kts | 12° |
| 2026-05-08 16:48 | 37.36561 | 3.50253 | 18937 ft | 419 kts | 12° |
| 2026-05-08 16:48 | 37.39360 | 3.51359 | 19441 ft | 423 kts | 12° |
| 2026-05-08 16:48 | 37.42189 | 3.52478 | 19943 ft | 427 kts | 12° |
| 2026-05-08 16:49 | 37.45039 | 3.53606 | 20489 ft | 429 kts | 12° |
| 2026-05-08 16:49 | 37.47906 | 3.54742 | 20986 ft | 432 kts | 12° |
| 2026-05-08 16:49 | 37.50749 | 3.55870 | 21443 ft | 436 kts | 12° |
| 2026-05-08 16:49 | 37.53663 | 3.57026 | 21898 ft | 440 kts | 12° |
| 2026-05-08 16:50 | 37.56602 | 3.58193 | 22357 ft | 443 kts | 11° |
| 2026-05-08 16:50 | 37.59563 | 3.59370 | 22809 ft | 447 kts | 11° |
| 2026-05-08 16:50 | 37.62546 | 3.60557 | 23251 ft | 450 kts | 11° |
| 2026-05-08 16:50 | 37.65518 | 3.61740 | 23658 ft | 454 kts | 11° |
| 2026-05-08 16:51 | 37.68543 | 3.62947 | 24105 ft | 455 kts | 11° |
| 2026-05-08 16:51 | 37.71563 | 3.64153 | 24535 ft | 456 kts | 11° |
| 2026-05-08 16:51 | 37.74606 | 3.65368 | 24901 ft | 459 kts | 11° |
| 2026-05-08 16:51 | 37.77653 | 3.66585 | 25256 ft | 461 kts | 10° |
| 2026-05-08 16:52 | 37.80692 | 3.67800 | 25610 ft | 464 kts | 10° |
| 2026-05-08 16:52 | 37.83782 | 3.69036 | 25974 ft | 466 kts | 10° |
| 2026-05-08 16:52 | 37.86882 | 3.70278 | 26322 ft | 468 kts | 9° |
| 2026-05-08 16:52 | 37.89999 | 3.71528 | 26695 ft | 470 kts | 9° |
| 2026-05-08 16:53 | 37.96258 | 3.74043 | 27462 ft | 472 kts | 9° |
| 2026-05-08 16:53 | 37.99368 | 3.75293 | 27752 ft | 475 kts | 9° |
| 2026-05-08 16:53 | 38.02539 | 3.76568 | 28048 ft | 478 kts | 9° |
| 2026-05-08 16:54 | 38.05719 | 3.77848 | 28368 ft | 480 kts | 8° |
| 2026-05-08 16:54 | 38.08908 | 3.79134 | 28686 ft | 481 kts | 8° |
| 2026-05-08 16:54 | 38.12078 | 3.80414 | 28978 ft | 483 kts | 8° |
| 2026-05-08 16:54 | 38.15296 | 3.81715 | 29357 ft | 484 kts | 8° |
| 2026-05-08 16:55 | 38.18508 | 3.83014 | 29669 ft | 485 kts | 8° |
| 2026-05-08 16:55 | 38.21730 | 3.84318 | 29941 ft | 487 kts | 8° |
| 2026-05-08 16:55 | 38.24972 | 3.85631 | 30191 ft | 489 kts | 8° |
| 2026-05-08 16:55 | 38.28213 | 3.86946 | 30475 ft | 488 kts | 8° |
| 2026-05-08 16:56 | 38.31412 | 3.88246 | 30809 ft | 488 kts | 7° |
| 2026-05-08 16:56 | 38.34650 | 3.89563 | 31113 ft | 487 kts | 7° |
| 2026-05-08 16:56 | 38.37884 | 3.90878 | 31372 ft | 488 kts | 7° |
| 2026-05-08 16:56 | 38.41125 | 3.92196 | 31629 ft | 489 kts | 7° |
| 2026-05-08 16:57 | 38.44364 | 3.93515 | 31918 ft | 488 kts | 7° |
| 2026-05-08 16:57 | 38.47601 | 3.94818 | 32219 ft | 486 kts | 5° |
| 2026-05-08 16:57 | 38.50861 | 3.95754 | 32469 ft | 474 kts | 358° |
| 2026-05-08 16:57 | 38.54086 | 3.96377 | 32733 ft | 472 kts | 356° |
| 2026-05-08 16:58 | 38.57346 | 3.96935 | 33015 ft | 471 kts | 355° |
| 2026-05-08 16:58 | 38.60571 | 3.97477 | 33354 ft | 470 kts | 355° |
| 2026-05-08 16:58 | 38.63818 | 3.98041 | 33695 ft | 468 kts | 355° |
| 2026-05-08 16:58 | 38.67050 | 3.98623 | 33992 ft | 468 kts | 355° |
| 2026-05-08 16:59 | 38.70282 | 3.99222 | 34198 ft | 469 kts | 355° |
| 2026-05-08 16:59 | 38.73490 | 3.99826 | 34378 ft | 470 kts | 356° |
| 2026-05-08 16:59 | 38.76732 | 4.00444 | 34585 ft | 471 kts | 356° |
| 2026-05-08 16:59 | 38.79969 | 4.01064 | 34804 ft | 471 kts | 356° |
| 2026-05-08 17:00 | 38.82158 | 4.01484 | 34940 ft | 471 kts | 356° |
| 2026-05-08 17:00 | 38.85397 | 4.02100 | 35234 ft | 470 kts | 356° |
| 2026-05-08 17:00 | 38.88588 | 4.02713 | 35474 ft | 469 kts | 356° |
| 2026-05-08 17:00 | 38.91825 | 4.03335 | 35641 ft | 470 kts | 356° |
| 2026-05-08 17:01 | 38.95064 | 4.03955 | 35786 ft | 471 kts | 356° |
| 2026-05-08 17:01 | 38.98308 | 4.04577 | 35963 ft | 471 kts | 356° |
| 2026-05-08 17:01 | 39.04847 | 4.05830 | 35988 ft | 474 kts | 356° |
| 2026-05-08 17:02 | 39.11313 | 4.07080 | 35993 ft | 470 kts | 356° |
| 2026-05-08 17:02 | 39.17762 | 4.08323 | 35991 ft | 467 kts | 356° |
| 2026-05-08 17:03 | 39.24191 | 4.09562 | 35992 ft | 465 kts | 356° |
| 2026-05-08 17:03 | 39.30565 | 4.10788 | 36018 ft | 467 kts | 358° |
| 2026-05-08 17:04 | 39.37051 | 4.12030 | 36011 ft | 475 kts | 358° |
| 2026-05-08 17:04 | 39.43621 | 4.13302 | 36002 ft | 478 kts | 358° |
| 2026-05-08 17:05 | 39.50185 | 4.14579 | 36000 ft | 480 kts | 358° |
| 2026-05-08 17:05 | 39.56819 | 4.15869 | 36014 ft | 481 kts | 359° |
| 2026-05-08 17:06 | 39.63414 | 4.17151 | 36012 ft | 481 kts | 359° |
| 2026-05-08 17:06 | 39.70035 | 4.18430 | 35995 ft | 480 kts | 359° |
| 2026-05-08 17:07 | 39.76639 | 4.19706 | 35990 ft | 478 kts | 360° |
| 2026-05-08 17:07 | 39.83184 | 4.20975 | 35992 ft | 477 kts | 360° |
| 2026-05-08 17:08 | 39.89747 | 4.22310 | 35992 ft | 477 kts | 1° |
| 2026-05-08 17:08 | 39.96288 | 4.23867 | 36025 ft | 477 kts | 3° |
| 2026-05-08 17:09 | 40.02814 | 4.25454 | 36005 ft | 476 kts | 3° |
| 2026-05-08 17:09 | 40.09335 | 4.27014 | 36009 ft | 475 kts | 2° |
| 2026-05-08 17:10 | 40.15808 | 4.28548 | 36014 ft | 475 kts | 2° |
| 2026-05-08 17:10 | 40.22311 | 4.30089 | 36020 ft | 475 kts | 3° |
| 2026-05-08 17:11 | 40.28825 | 4.31638 | 36017 ft | 475 kts | 3° |
| 2026-05-08 17:11 | 40.35298 | 4.33182 | 36016 ft | 475 kts | 3° |
| 2026-05-08 17:12 | 40.41815 | 4.34739 | 36034 ft | 476 kts | 4° |
| 2026-05-08 17:12 | 40.48362 | 4.36306 | 36022 ft | 477 kts | 4° |
| 2026-05-08 17:13 | 40.54904 | 4.37865 | 36013 ft | 478 kts | 4° |
| 2026-05-08 17:13 | 40.61457 | 4.39415 | 36022 ft | 478 kts | 4° |
| 2026-05-08 17:14 | 40.67971 | 4.40960 | 36010 ft | 479 kts | 4° |
| 2026-05-08 17:14 | 40.74539 | 4.42524 | 36021 ft | 479 kts | 4° |
| 2026-05-08 17:15 | 40.81115 | 4.44094 | 36020 ft | 479 kts | 4° |
| 2026-05-08 17:15 | 40.87639 | 4.45653 | 36024 ft | 479 kts | 5° |
| 2026-05-08 17:16 | 40.94206 | 4.47240 | 36017 ft | 479 kts | 5° |
| 2026-05-08 17:16 | 41.00778 | 4.48852 | 36021 ft | 479 kts | 5° |
| 2026-05-08 17:17 | 41.07295 | 4.50449 | 36027 ft | 479 kts | 5° |
| 2026-05-08 17:17 | 41.13865 | 4.52054 | 36017 ft | 478 kts | 5° |
| 2026-05-08 17:18 | 41.20376 | 4.53643 | 36015 ft | 478 kts | 5° |
| 2026-05-08 17:18 | 41.26928 | 4.55247 | 36033 ft | 477 kts | 6° |
| 2026-05-08 17:19 | 41.33461 | 4.56850 | 36019 ft | 477 kts | 6° |
| 2026-05-08 17:19 | 41.39956 | 4.58447 | 36013 ft | 475 kts | 6° |
| 2026-05-08 17:20 | 41.46460 | 4.60050 | 36016 ft | 474 kts | 6° |
| 2026-05-08 17:20 | 41.52916 | 4.61644 | 36021 ft | 474 kts | 6° |
| 2026-05-08 17:21 | 41.59399 | 4.63248 | 36019 ft | 473 kts | 6° |
| 2026-05-08 17:21 | 41.65870 | 4.64853 | 36017 ft | 472 kts | 6° |
| 2026-05-08 17:22 | 41.72351 | 4.66463 | 36023 ft | 472 kts | 7° |
| 2026-05-08 17:22 | 41.78695 | 4.68646 | 36024 ft | 475 kts | 13° |
| 2026-05-08 17:23 | 41.85028 | 4.71231 | 36016 ft | 475 kts | 14° |
| 2026-05-08 17:23 | 41.91365 | 4.73814 | 36025 ft | 475 kts | 14° |
| 2026-05-08 17:24 | 41.97710 | 4.76350 | 36019 ft | 475 kts | 14° |
| 2026-05-08 17:24 | 42.04032 | 4.78860 | 36015 ft | 476 kts | 14° |
| 2026-05-08 17:25 | 42.10357 | 4.81373 | 36032 ft | 476 kts | 14° |
| 2026-05-08 17:25 | 42.16724 | 4.83911 | 36019 ft | 476 kts | 14° |
| 2026-05-08 17:26 | 42.23096 | 4.86459 | 36019 ft | 476 kts | 14° |
| 2026-05-08 17:26 | 42.29428 | 4.88995 | 36020 ft | 476 kts | 14° |
| 2026-05-08 17:27 | 42.35766 | 4.91539 | 36020 ft | 477 kts | 14° |
| 2026-05-08 17:27 | 42.42146 | 4.94106 | 36019 ft | 477 kts | 14° |
| 2026-05-08 17:28 | 42.48512 | 4.96673 | 36013 ft | 476 kts | 14° |
| 2026-05-08 17:28 | 42.54814 | 4.99218 | 36025 ft | 475 kts | 14° |
| 2026-05-08 17:29 | 42.61177 | 5.01764 | 36015 ft | 475 kts | 14° |
| 2026-05-08 17:29 | 42.67479 | 5.04255 | 36031 ft | 474 kts | 14° |
| 2026-05-08 17:30 | 42.73815 | 5.06773 | 36026 ft | 473 kts | 14° |
| 2026-05-08 17:30 | 42.80081 | 5.09506 | 36013 ft | 474 kts | 24° |
| 2026-05-08 17:31 | 42.82924 | 5.11772 | 36038 ft | 475 kts | 36° |
| 2026-05-08 17:31 | 42.85437 | 5.14709 | 36018 ft | 475 kts | 47° |
| 2026-05-08 17:31 | 42.89508 | 5.21738 | 36036 ft | 475 kts | 53° |
| 2026-05-08 17:32 | 42.93477 | 5.28968 | 36024 ft | 475 kts | 53° |
| 2026-05-08 17:32 | 42.97494 | 5.36152 | 36025 ft | 476 kts | 52° |
| 2026-05-08 17:33 | 43.01515 | 5.43278 | 36033 ft | 476 kts | 52° |
| 2026-05-08 17:33 | 43.05567 | 5.50473 | 36035 ft | 476 kts | 52° |
| 2026-05-08 17:34 | 43.09576 | 5.57613 | 36042 ft | 476 kts | 52° |
| 2026-05-08 17:34 | 43.13861 | 5.64507 | 36028 ft | 476 kts | 47° |
| 2026-05-08 17:35 | 43.18322 | 5.71220 | 36030 ft | 476 kts | 47° |
| 2026-05-08 17:35 | 43.22759 | 5.77975 | 36025 ft | 477 kts | 47° |
| 2026-05-08 17:36 | 43.27167 | 5.84783 | 36030 ft | 477 kts | 47° |
| 2026-05-08 17:36 | 43.31560 | 5.91598 | 36022 ft | 477 kts | 47° |
| 2026-05-08 17:37 | 43.35936 | 5.98393 | 36022 ft | 476 kts | 47° |
| 2026-05-08 17:37 | 43.38359 | 6.01484 | 35997 ft | 473 kts | 32° |
| 2026-05-08 17:37 | 43.41240 | 6.03600 | 36034 ft | 468 kts | 18° |
| 2026-05-08 17:38 | 43.44368 | 6.04762 | 36014 ft | 463 kts | 4° |
| 2026-05-08 17:38 | 43.47572 | 6.05117 | 36052 ft | 460 kts | 360° |
| 2026-05-08 17:38 | 43.53940 | 6.05583 | 36025 ft | 461 kts | 360° |
| 2026-05-08 17:39 | 43.60364 | 6.06140 | 36020 ft | 463 kts | 0° |
| 2026-05-08 17:39 | 43.66814 | 6.06778 | 36023 ft | 463 kts | 1° |
| 2026-05-08 17:40 | 43.73239 | 6.07417 | 36016 ft | 464 kts | 1° |
| 2026-05-08 17:40 | 43.79580 | 6.09353 | 36017 ft | 472 kts | 19° |
| 2026-05-08 17:41 | 43.85525 | 6.13344 | 36024 ft | 475 kts | 24° |
| 2026-05-08 17:41 | 43.91395 | 6.17487 | 36030 ft | 476 kts | 23° |
| 2026-05-08 17:42 | 43.97329 | 6.21597 | 36030 ft | 476 kts | 23° |
| 2026-05-08 17:42 | 44.03285 | 6.25678 | 36031 ft | 476 kts | 23° |
| 2026-05-08 17:43 | 44.09180 | 6.29722 | 36049 ft | 475 kts | 23° |
| 2026-05-08 17:43 | 44.15120 | 6.33810 | 36036 ft | 474 kts | 23° |
| 2026-05-08 17:44 | 44.21023 | 6.37884 | 36045 ft | 473 kts | 23° |
| 2026-05-08 17:44 | 44.26883 | 6.41943 | 36042 ft | 472 kts | 22° |
| 2026-05-08 17:45 | 44.32772 | 6.46030 | 36042 ft | 472 kts | 22° |
| 2026-05-08 17:45 | 44.38669 | 6.50137 | 36032 ft | 472 kts | 22° |
| 2026-05-08 17:46 | 44.44510 | 6.54209 | 36059 ft | 472 kts | 22° |
| 2026-05-08 17:46 | 44.50389 | 6.58315 | 36052 ft | 472 kts | 22° |
| 2026-05-08 17:47 | 44.55285 | 6.61719 | 36043 ft | 471 kts | 22° |
| 2026-05-08 17:47 | 44.61142 | 6.65792 | 36051 ft | 470 kts | 22° |
| 2026-05-08 17:48 | 44.67973 | 6.70566 | 36059 ft | 471 kts | 22° |
| 2026-05-08 17:48 | 44.72897 | 6.74014 | 36047 ft | 472 kts | 22° |
| 2026-05-08 17:49 | 44.78842 | 6.77646 | 36066 ft | 463 kts | 10° |
| 2026-05-08 17:49 | 44.85148 | 6.78829 | 36052 ft | 451 kts | 352° |
| 2026-05-08 17:50 | 44.91399 | 6.78380 | 36053 ft | 449 kts | 351° |
| 2026-05-08 17:50 | 44.97614 | 6.77871 | 36034 ft | 447 kts | 351° |
| 2026-05-08 17:51 | 45.03831 | 6.77433 | 36067 ft | 448 kts | 352° |
| 2026-05-08 17:51 | 45.10077 | 6.77022 | 36055 ft | 448 kts | 352° |
| 2026-05-08 17:52 | 45.16293 | 6.76615 | 36048 ft | 450 kts | 352° |
| 2026-05-08 17:53 | 45.25702 | 6.75993 | 36053 ft | 450 kts | 352° |
| 2026-05-08 17:53 | 45.31934 | 6.75579 | 36049 ft | 449 kts | 352° |
| 2026-05-08 17:54 | 45.38179 | 6.75176 | 36072 ft | 448 kts | 352° |
| 2026-05-08 17:54 | 45.44422 | 6.74781 | 36059 ft | 449 kts | 352° |
| 2026-05-08 17:55 | 45.50620 | 6.74375 | 36053 ft | 447 kts | 352° |
| 2026-05-08 17:55 | 45.56839 | 6.73951 | 36054 ft | 445 kts | 352° |
| 2026-05-08 17:56 | 45.62998 | 6.73527 | 36056 ft | 445 kts | 352° |
| 2026-05-08 17:56 | 45.69187 | 6.73106 | 36059 ft | 441 kts | 352° |
| 2026-05-08 17:57 | 45.75288 | 6.72692 | 36057 ft | 440 kts | 352° |
| 2026-05-08 17:57 | 45.81396 | 6.72274 | 36035 ft | 439 kts | 352° |
| 2026-05-08 17:58 | 45.87475 | 6.71855 | 36045 ft | 434 kts | 352° |
| 2026-05-08 17:58 | 45.93513 | 6.71434 | 36032 ft | 433 kts | 351° |
| 2026-05-08 17:59 | 45.99487 | 6.71017 | 36046 ft | 432 kts | 352° |
| 2026-05-08 17:59 | 46.05524 | 6.70595 | 36041 ft | 433 kts | 351° |
| 2026-05-08 18:00 | 46.11542 | 6.70295 | 36029 ft | 439 kts | 358° |
| 2026-05-08 18:00 | 46.17631 | 6.72011 | 36061 ft | 452 kts | 11° |
| 2026-05-08 18:00 | 46.20658 | 6.73331 | 36041 ft | 454 kts | 11° |
| 2026-05-08 18:01 | 46.26711 | 6.76005 | 36040 ft | 456 kts | 11° |
| 2026-05-08 18:01 | 46.32768 | 6.78614 | 36020 ft | 456 kts | 11° |
| 2026-05-08 18:02 | 46.37844 | 6.80751 | 36042 ft | 456 kts | 11° |
| 2026-05-08 18:02 | 46.44979 | 6.83786 | 36025 ft | 457 kts | 11° |
| 2026-05-08 18:03 | 46.51050 | 6.86374 | 36033 ft | 457 kts | 12° |
| 2026-05-08 18:03 | 46.54028 | 6.88100 | 36011 ft | 465 kts | 23° |
| 2026-05-08 18:03 | 46.56762 | 6.90694 | 36025 ft | 472 kts | 34° |
| 2026-05-08 18:04 | 46.59147 | 6.94033 | 36014 ft | 479 kts | 46° |
| 2026-05-08 18:04 | 46.61219 | 6.97742 | 36031 ft | 479 kts | 47° |
| 2026-05-08 18:04 | 46.65326 | 7.05385 | 36017 ft | 478 kts | 47° |
| 2026-05-08 18:05 | 46.69453 | 7.12971 | 36024 ft | 476 kts | 47° |
| 2026-05-08 18:05 | 46.73586 | 7.20463 | 36026 ft | 476 kts | 47° |
| 2026-05-08 18:06 | 46.77740 | 7.27989 | 36018 ft | 476 kts | 47° |
| 2026-05-08 18:06 | 46.81861 | 7.35487 | 36027 ft | 475 kts | 47° |
| 2026-05-08 18:07 | 46.86005 | 7.43048 | 36019 ft | 475 kts | 47° |
| 2026-05-08 18:07 | 46.90131 | 7.50619 | 35993 ft | 475 kts | 47° |
| 2026-05-08 18:08 | 46.94212 | 7.58131 | 36023 ft | 475 kts | 47° |
| 2026-05-08 18:08 | 46.98333 | 7.65736 | 36004 ft | 476 kts | 47° |
| 2026-05-08 18:09 | 47.02446 | 7.73348 | 35990 ft | 476 kts | 47° |
| 2026-05-08 18:09 | 47.06516 | 7.80903 | 36000 ft | 475 kts | 47° |
| 2026-05-08 18:10 | 47.10605 | 7.88510 | 36010 ft | 475 kts | 47° |
| 2026-05-08 18:10 | 47.14639 | 7.96242 | 35991 ft | 478 kts | 52° |
| 2026-05-08 18:11 | 47.18169 | 8.04532 | 36012 ft | 480 kts | 56° |
| 2026-05-08 18:11 | 47.21613 | 8.12927 | 36014 ft | 480 kts | 55° |
| 2026-05-08 18:12 | 47.25247 | 8.21190 | 35999 ft | 477 kts | 46° |
| 2026-05-08 18:12 | 47.27585 | 8.24589 | 36021 ft | 468 kts | 33° |
| 2026-05-08 18:12 | 47.30260 | 8.27258 | 36017 ft | 463 kts | 24° |
| 2026-05-08 18:13 | 47.36070 | 8.30955 | 36008 ft | 457 kts | 17° |
| 2026-05-08 18:13 | 47.42098 | 8.33887 | 36020 ft | 454 kts | 10° |
| 2026-05-08 18:14 | 47.48169 | 8.36283 | 36009 ft | 454 kts | 9° |
| 2026-05-08 18:14 | 47.54294 | 8.38709 | 36015 ft | 456 kts | 10° |
| 2026-05-08 18:15 | 47.60422 | 8.41229 | 36008 ft | 457 kts | 11° |
| 2026-05-08 18:15 | 47.66532 | 8.43792 | 36018 ft | 458 kts | 11° |
| 2026-05-08 18:16 | 47.72690 | 8.46391 | 36029 ft | 459 kts | 11° |
| 2026-05-08 18:16 | 47.78816 | 8.48980 | 36015 ft | 460 kts | 11° |
| 2026-05-08 18:17 | 47.84974 | 8.51586 | 36031 ft | 459 kts | 11° |
| 2026-05-08 18:17 | 47.91144 | 8.54205 | 36046 ft | 460 kts | 12° |
| 2026-05-08 18:18 | 47.97278 | 8.56813 | 36032 ft | 461 kts | 12° |
| 2026-05-08 18:18 | 48.03476 | 8.59455 | 36025 ft | 461 kts | 12° |
| 2026-05-08 18:19 | 48.09634 | 8.62086 | 35712 ft | 467 kts | 12° |
| 2026-05-08 18:19 | 48.12779 | 8.63430 | 35166 ft | 468 kts | 12° |
| 2026-05-08 18:19 | 48.15907 | 8.64772 | 34541 ft | 468 kts | 12° |
| 2026-05-08 18:20 | 48.19042 | 8.66119 | 33866 ft | 469 kts | 12° |
| 2026-05-08 18:20 | 48.22188 | 8.67471 | 33208 ft | 468 kts | 12° |
| 2026-05-08 18:20 | 48.25303 | 8.68814 | 32736 ft | 462 kts | 12° |
| 2026-05-08 18:20 | 48.28352 | 8.70131 | 32234 ft | 458 kts | 12° |
| 2026-05-08 18:21 | 48.31399 | 8.71448 | 31790 ft | 453 kts | 12° |
| 2026-05-08 18:21 | 48.34425 | 8.72756 | 31343 ft | 449 kts | 13° |
| 2026-05-08 18:21 | 48.37419 | 8.74050 | 30890 ft | 445 kts | 13° |
| 2026-05-08 18:21 | 48.40346 | 8.75317 | 30451 ft | 441 kts | 13° |
| 2026-05-08 18:22 | 48.43301 | 8.76598 | 29996 ft | 438 kts | 13° |
| 2026-05-08 18:22 | 48.46225 | 8.77867 | 29476 ft | 434 kts | 13° |
| 2026-05-08 18:22 | 48.49113 | 8.79123 | 29010 ft | 429 kts | 13° |
| 2026-05-08 18:22 | 48.51933 | 8.80350 | 28561 ft | 425 kts | 13° |
| 2026-05-08 18:23 | 48.54767 | 8.81585 | 28115 ft | 420 kts | 13° |
| 2026-05-08 18:23 | 48.57567 | 8.82806 | 27658 ft | 417 kts | 13° |
| 2026-05-08 18:23 | 48.60339 | 8.84016 | 27217 ft | 413 kts | 13° |
| 2026-05-08 18:23 | 48.63099 | 8.85222 | 26773 ft | 409 kts | 13° |
| 2026-05-08 18:24 | 48.65830 | 8.86417 | 26338 ft | 406 kts | 13° |
| 2026-05-08 18:24 | 48.68509 | 8.87591 | 25915 ft | 403 kts | 14° |
| 2026-05-08 18:24 | 48.71191 | 8.88767 | 25492 ft | 400 kts | 14° |
| 2026-05-08 18:24 | 48.73861 | 8.89939 | 25076 ft | 397 kts | 14° |
| 2026-05-08 18:25 | 48.76507 | 8.91102 | 24654 ft | 395 kts | 14° |
| 2026-05-08 18:25 | 48.79143 | 8.92262 | 24230 ft | 393 kts | 14° |
| 2026-05-08 18:25 | 48.81762 | 8.93415 | 23814 ft | 391 kts | 14° |
| 2026-05-08 18:25 | 48.84344 | 8.94554 | 23352 ft | 389 kts | 14° |
| 2026-05-08 18:26 | 48.86939 | 8.95700 | 22882 ft | 386 kts | 14° |
| 2026-05-08 18:26 | 48.89511 | 8.96837 | 22441 ft | 383 kts | 14° |
| 2026-05-08 18:26 | 48.92068 | 8.97968 | 22023 ft | 380 kts | 14° |
| 2026-05-08 18:26 | 48.94597 | 8.99088 | 21608 ft | 377 kts | 14° |
| 2026-05-08 18:27 | 48.97080 | 9.00189 | 21210 ft | 374 kts | 14° |
| 2026-05-08 18:27 | 48.98767 | 9.00938 | 20939 ft | 372 kts | 14° |
| 2026-05-08 18:27 | 49.02043 | 9.02393 | 20412 ft | 369 kts | 14° |
| 2026-05-08 18:27 | 49.04498 | 9.03485 | 20011 ft | 366 kts | 14° |
| 2026-05-08 18:28 | 49.06942 | 9.04573 | 19617 ft | 364 kts | 14° |
| 2026-05-08 18:28 | 49.09365 | 9.05653 | 19224 ft | 362 kts | 14° |
| 2026-05-08 18:28 | 49.11776 | 9.06729 | 18834 ft | 360 kts | 14° |
| 2026-05-08 18:28 | 49.14184 | 9.07803 | 18451 ft | 358 kts | 14° |
| 2026-05-08 18:29 | 49.16552 | 9.08758 | 18201 ft | 354 kts | 12° |
| 2026-05-08 18:29 | 49.18960 | 9.09640 | 17939 ft | 357 kts | 12° |
| 2026-05-08 18:29 | 49.21397 | 9.10511 | 17679 ft | 362 kts | 12° |
| 2026-05-08 18:29 | 49.23866 | 9.11396 | 17416 ft | 364 kts | 12° |
| 2026-05-08 18:30 | 49.26329 | 9.12290 | 17150 ft | 361 kts | 12° |
| 2026-05-08 18:30 | 49.28771 | 9.13187 | 16882 ft | 359 kts | 12° |
| 2026-05-08 18:30 | 49.31167 | 9.14072 | 16625 ft | 357 kts | 12° |
| 2026-05-08 18:30 | 49.33584 | 9.14970 | 16362 ft | 355 kts | 12° |
| 2026-05-08 18:31 | 49.35982 | 9.15864 | 16094 ft | 354 kts | 12° |
| 2026-05-08 18:31 | 49.38404 | 9.16768 | 15632 ft | 358 kts | 12° |
| 2026-05-08 18:31 | 49.40831 | 9.17675 | 15191 ft | 358 kts | 13° |
| 2026-05-08 18:31 | 49.43193 | 9.18560 | 14739 ft | 348 kts | 13° |
| 2026-05-08 18:32 | 49.45527 | 9.19436 | 14296 ft | 339 kts | 13° |
| 2026-05-08 18:32 | 49.47718 | 9.20623 | 13849 ft | 333 kts | 25° |
| 2026-05-08 18:32 | 49.49769 | 9.22255 | 13386 ft | 330 kts | 28° |
| 2026-05-08 18:32 | 49.51775 | 9.23940 | 12896 ft | 328 kts | 28° |
| 2026-05-08 18:33 | 49.53778 | 9.25642 | 12450 ft | 329 kts | 28° |
| 2026-05-08 18:33 | 49.55778 | 9.27350 | 12128 ft | 332 kts | 28° |
| 2026-05-08 18:33 | 49.57792 | 9.29076 | 12085 ft | 329 kts | 28° |
| 2026-05-08 18:33 | 49.59795 | 9.30798 | 12095 ft | 329 kts | 28° |
| 2026-05-08 18:34 | 49.61787 | 9.32523 | 12090 ft | 329 kts | 28° |
| 2026-05-08 18:34 | 49.63784 | 9.34259 | 12080 ft | 327 kts | 28° |
| 2026-05-08 18:34 | 49.65753 | 9.35975 | 11764 ft | 323 kts | 28° |
| 2026-05-08 18:34 | 49.67691 | 9.37666 | 11303 ft | 315 kts | 28° |
| 2026-05-08 18:35 | 49.69559 | 9.39301 | 11112 ft | 303 kts | 28° |
| 2026-05-08 18:35 | 49.71382 | 9.40900 | 11095 ft | 299 kts | 28° |
| 2026-05-08 18:35 | 49.73177 | 9.42476 | 11101 ft | 300 kts | 28° |
| 2026-05-08 18:35 | 49.74407 | 9.43557 | 11101 ft | 301 kts | 28° |
| 2026-05-08 18:36 | 49.76826 | 9.45684 | 11100 ft | 301 kts | 28° |
| 2026-05-08 18:36 | 49.78780 | 9.46715 | 11085 ft | 297 kts | 0° |
| 2026-05-08 18:36 | 49.80121 | 9.46460 | 11105 ft | 292 kts | 339° |
| 2026-05-08 18:36 | 49.82231 | 9.43995 | 11110 ft | 286 kts | 308° |
| 2026-05-08 18:37 | 49.83031 | 9.42356 | 11055 ft | 288 kts | 303° |
| 2026-05-08 18:37 | 49.84156 | 9.39743 | 10645 ft | 291 kts | 302° |
| 2026-05-08 18:37 | 49.85267 | 9.37129 | 10290 ft | 289 kts | 302° |
| 2026-05-08 18:37 | 49.86321 | 9.34499 | 9909 ft | 284 kts | 292° |
| 2026-05-08 18:38 | 49.86939 | 9.31631 | 9529 ft | 278 kts | 284° |
| 2026-05-08 18:38 | 49.87458 | 9.28763 | 9156 ft | 275 kts | 284° |
| 2026-05-08 18:38 | 49.87987 | 9.25860 | 9144 ft | 283 kts | 285° |
| 2026-05-08 18:38 | 49.88527 | 9.22934 | 9089 ft | 281 kts | 285° |
| 2026-05-08 18:39 | 49.89101 | 9.20094 | 9086 ft | 277 kts | 293° |
| 2026-05-08 18:39 | 49.90206 | 9.17656 | 9122 ft | 278 kts | 311° |
| 2026-05-08 18:39 | 49.91556 | 9.15489 | 9100 ft | 279 kts | 313° |
| 2026-05-08 18:39 | 49.92935 | 9.13349 | 9085 ft | 280 kts | 313° |
| 2026-05-08 18:40 | 49.94320 | 9.11213 | 9084 ft | 280 kts | 313° |
| 2026-05-08 18:40 | 49.95687 | 9.09110 | 9081 ft | 279 kts | 313° |
| 2026-05-08 18:40 | 49.97031 | 9.07050 | 9080 ft | 279 kts | 313° |
| 2026-05-08 18:40 | 49.98416 | 9.04930 | 9084 ft | 279 kts | 314° |
| 2026-05-08 18:41 | 49.99801 | 9.02811 | 9086 ft | 279 kts | 314° |
| 2026-05-08 18:41 | 50.01185 | 9.00693 | 9089 ft | 279 kts | 314° |
| 2026-05-08 18:41 | 50.02567 | 8.98575 | 9094 ft | 279 kts | 313° |
| 2026-05-08 18:41 | 50.03649 | 8.96153 | 9082 ft | 276 kts | 286° |
| 2026-05-08 18:42 | 50.03713 | 8.93224 | 9021 ft | 277 kts | 255° |
| 2026-05-08 18:42 | 50.02967 | 8.90456 | 8637 ft | 276 kts | 246° |
| 2026-05-08 18:42 | 50.02223 | 8.87712 | 8247 ft | 274 kts | 248° |
| 2026-05-08 18:42 | 50.01517 | 8.84961 | 8130 ft | 274 kts | 249° |
| 2026-05-08 18:43 | 50.00833 | 8.82230 | 8106 ft | 273 kts | 249° |
| 2026-05-08 18:43 | 50.00151 | 8.79466 | 8104 ft | 272 kts | 249° |
| 2026-05-08 18:43 | 49.99485 | 8.76759 | 8100 ft | 272 kts | 249° |
| 2026-05-08 18:43 | 49.98807 | 8.74000 | 8098 ft | 273 kts | 249° |
| 2026-05-08 18:44 | 49.98138 | 8.71271 | 8098 ft | 272 kts | 249° |
| 2026-05-08 18:44 | 49.97478 | 8.68532 | 8080 ft | 258 kts | 250° |
| 2026-05-08 18:44 | 49.96878 | 8.66028 | 8101 ft | 244 kts | 250° |
| 2026-05-08 18:44 | 49.96295 | 8.63594 | 8102 ft | 238 kts | 250° |
| 2026-05-08 18:45 | 49.95716 | 8.61179 | 8105 ft | 239 kts | 250° |
| 2026-05-08 18:45 | 49.95129 | 8.58735 | 7835 ft | 246 kts | 250° |
| 2026-05-08 18:45 | 49.94528 | 8.56234 | 7328 ft | 245 kts | 250° |
| 2026-05-08 18:45 | 49.93943 | 8.53808 | 6829 ft | 240 kts | 250° |
| 2026-05-08 18:46 | 49.93364 | 8.51413 | 6351 ft | 235 kts | 250° |
| 2026-05-08 18:46 | 49.92787 | 8.49029 | 6183 ft | 237 kts | 250° |
| 2026-05-08 18:46 | 49.92203 | 8.46607 | 6067 ft | 239 kts | 250° |
| 2026-05-08 18:46 | 49.91630 | 8.44230 | 5751 ft | 240 kts | 250° |
| 2026-05-08 18:47 | 49.91042 | 8.41792 | 5291 ft | 242 kts | 250° |
| 2026-05-08 18:47 | 49.90453 | 8.39347 | 4835 ft | 241 kts | 250° |
| 2026-05-08 18:47 | 49.89864 | 8.36912 | 4370 ft | 242 kts | 249° |
| 2026-05-08 18:47 | 49.89271 | 8.34465 | 4027 ft | 240 kts | 249° |
| 2026-05-08 18:48 | 49.88678 | 8.32022 | 3994 ft | 242 kts | 249° |
| 2026-05-08 18:48 | 49.88087 | 8.29581 | 3979 ft | 239 kts | 249° |
| 2026-05-08 18:48 | 49.87510 | 8.27206 | 3985 ft | 238 kts | 249° |
| 2026-05-08 18:48 | 49.86922 | 8.24792 | 3983 ft | 239 kts | 249° |
| 2026-05-08 18:49 | 49.86334 | 8.22375 | 3988 ft | 240 kts | 249° |
| 2026-05-08 18:49 | 49.85741 | 8.19941 | 3984 ft | 241 kts | 249° |
| 2026-05-08 18:49 | 49.85146 | 8.17500 | 3987 ft | 242 kts | 249° |
| 2026-05-08 18:49 | 49.84550 | 8.15058 | 3984 ft | 241 kts | 249° |
| 2026-05-08 18:50 | 49.83963 | 8.12653 | 3980 ft | 241 kts | 249° |
| 2026-05-08 18:50 | 49.83369 | 8.10223 | 3981 ft | 240 kts | 249° |
| 2026-05-08 18:50 | 49.82776 | 8.07797 | 3983 ft | 239 kts | 249° |
| 2026-05-08 18:50 | 49.82185 | 8.05385 | 3985 ft | 239 kts | 249° |
| 2026-05-08 18:51 | 49.81602 | 8.03010 | 3983 ft | 239 kts | 249° |
| 2026-05-08 18:51 | 49.81015 | 8.00618 | 3983 ft | 239 kts | 249° |
| 2026-05-08 18:51 | 49.80425 | 7.98214 | 3989 ft | 239 kts | 249° |
| 2026-05-08 18:51 | 49.79831 | 7.95800 | 3981 ft | 239 kts | 249° |
| 2026-05-08 18:52 | 49.79461 | 7.93314 | 3976 ft | 238 kts | 273° |
| 2026-05-08 18:52 | 49.79936 | 7.90909 | 3983 ft | 234 kts | 306° |
| 2026-05-08 18:52 | 49.81145 | 7.89299 | 3989 ft | 230 kts | 338° |
| 2026-05-08 18:52 | 49.82677 | 7.88963 | 4002 ft | 227 kts | 11° |
| 2026-05-08 18:53 | 49.84092 | 7.89956 | 3995 ft | 225 kts | 39° |
| 2026-05-08 18:53 | 49.85281 | 7.91551 | 3998 ft | 227 kts | 43° |
| 2026-05-08 18:53 | 49.86454 | 7.93207 | 3989 ft | 229 kts | 43° |
| 2026-05-08 18:53 | 49.87627 | 7.94876 | 3994 ft | 229 kts | 43° |
| 2026-05-08 18:54 | 49.88783 | 7.96564 | 3996 ft | 227 kts | 49° |
| 2026-05-08 18:54 | 49.89626 | 7.98582 | 3999 ft | 225 kts | 63° |
| 2026-05-08 18:54 | 49.90282 | 8.00789 | 3994 ft | 225 kts | 67° |
| 2026-05-08 18:54 | 49.90865 | 8.03040 | 3987 ft | 224 kts | 69° |
| 2026-05-08 18:55 | 49.91892 | 8.07328 | 3983 ft | 204 kts | 70° |
| 2026-05-08 18:55 | 49.92373 | 8.09380 | 3984 ft | 204 kts | 70° |
| 2026-05-08 18:55 | 49.92863 | 8.11475 | 3984 ft | 207 kts | 70° |
| 2026-05-08 18:56 | 49.93355 | 8.13581 | 3996 ft | 208 kts | 70° |
| 2026-05-08 18:56 | 49.93852 | 8.15701 | 3996 ft | 208 kts | 70° |
| 2026-05-08 18:56 | 49.94348 | 8.17820 | 3997 ft | 209 kts | 70° |
| 2026-05-08 18:56 | 49.94839 | 8.19912 | 3975 ft | 199 kts | 70° |
| 2026-05-08 18:57 | 49.95286 | 8.21818 | 3964 ft | 182 kts | 70° |
| 2026-05-08 18:57 | 49.95572 | 8.23035 | 3968 ft | 175 kts | 70° |
| 2026-05-08 18:57 | 49.96121 | 8.25370 | 3976 ft | 174 kts | 70° |
| 2026-05-08 18:57 | 49.96543 | 8.27163 | 3849 ft | 180 kts | 70° |
| 2026-05-08 18:58 | 49.96967 | 8.28965 | 3601 ft | 174 kts | 70° |
| 2026-05-08 18:58 | 49.97379 | 8.30712 | 3391 ft | 170 kts | 70° |
| 2026-05-08 18:58 | 49.97786 | 8.32438 | 3163 ft | 169 kts | 70° |
| 2026-05-08 18:58 | 49.98193 | 8.34167 | 2928 ft | 170 kts | 70° |
| 2026-05-08 18:59 | 49.98594 | 8.35865 | 2703 ft | 170 kts | 70° |
| 2026-05-08 18:59 | 49.99001 | 8.37586 | 2485 ft | 169 kts | 69° |
| 2026-05-08 18:59 | 49.99404 | 8.39292 | 2250 ft | 168 kts | 69° |
| 2026-05-08 18:59 | 49.99807 | 8.40995 | 2014 ft | 166 kts | 69° |
| 2026-05-08 19:00 | 50.00193 | 8.42625 | 1804 ft | 155 kts | 68° |
| 2026-05-08 19:00 | 50.00553 | 8.44144 | 1640 ft | 148 kts | 69° |
| 2026-05-08 19:00 | 50.00910 | 8.45651 | 1395 ft | 147 kts | 68° |
| 2026-05-08 19:00 | 50.01257 | 8.47118 | 1217 ft | 146 kts | 68° |
| 2026-05-08 19:01 | 50.01611 | 8.48608 | 1013 ft | 148 kts | 67° |
| 2026-05-08 19:01 | 50.01969 | 8.50113 | 821 ft | 147 kts | 68° |
| 2026-05-08 19:01 | 50.02324 | 8.51611 | 628 ft | 147 kts | 68° |
| 2026-05-08 19:01 | 50.02681 | 8.53108 | 433 ft | 146 kts | 68° |
| 2026-05-08 19:02 | 50.03026 | 8.54541 | 332 ft | 137 kts | 68° |
| 2026-05-08 19:02 | 50.03291 | 8.55661 | 348 ft | 80 kts | 70° |
| 2026-05-08 19:02 | 50.03461 | 8.56254 | 357 ft | 50 kts | 51° |
| 2026-05-08 19:02 | 50.03620 | 8.56477 | 347 ft | 17 kts | 39° |
| 2026-05-08 19:03 | 50.03704 | 8.56587 | 354 ft | 15 kts | 40° |
| 2026-05-08 19:03 | 50.03782 | 8.56703 | 355 ft | 16 kts | 54° |
| 2026-05-08 19:03 | 50.03829 | 8.56886 | 360 ft | 21 kts | 69° |
| 2026-05-08 19:03 | 50.03887 | 8.57123 | 361 ft | 25 kts | 69° |
| 2026-05-08 19:04 | 50.03950 | 8.57388 | 363 ft | 27 kts | 70° |
| 2026-05-08 19:04 | 50.04019 | 8.57680 | 367 ft | 31 kts | 69° |
| 2026-05-08 19:04 | 50.04097 | 8.58001 | 370 ft | 34 kts | 69° |
| 2026-05-08 19:04 | 50.04180 | 8.58346 | 372 ft | 35 kts | 69° |
| 2026-05-08 19:05 | 50.04257 | 8.58670 | 371 ft | 28 kts | 69° |
| 2026-05-08 19:05 | 50.04322 | 8.58937 | 374 ft | 25 kts | 69° |
| 2026-05-08 19:05 | 50.04379 | 8.59174 | 375 ft | 21 kts | 70° |
| 2026-05-08 19:05 | 50.04421 | 8.59349 | 375 ft | 13 kts | 69° |
| 2026-05-08 19:06 | 50.04427 | 8.59375 | 375 ft | 0 kts | 69° |
| 2026-05-08 19:07 | 50.04432 | 8.59398 | 375 ft | 6 kts | 69° |
| 2026-05-08 19:07 | 50.04476 | 8.59470 | 374 ft | 12 kts | 13° |
| 2026-05-08 19:07 | 50.04514 | 8.59471 | 373 ft | 0 kts | 357° |
| 2026-05-08 19:07 | 50.04515 | 8.59471 | 373 ft | 1 kts | 357° |
| 2026-05-08 19:08 | 50.04537 | 8.59469 | 373 ft | 6 kts | 358° |
| 2026-05-08 19:08 | 50.04557 | 8.59468 | 373 ft | 0 kts | 358° |
| 2026-05-08 19:09 | 50.04564 | 8.59467 | 372 ft | 6 kts | 358° |
| 2026-05-08 19:10 | 50.04624 | 8.59463 | 372 ft | 19 kts | 354° |
| 2026-05-08 19:10 | 50.04759 | 8.59409 | 371 ft | 7 kts | 340° |
| 2026-05-08 19:10 | 50.04783 | 8.59395 | 371 ft | 0 kts | 340° |
| 2026-05-08 19:11 | 50.04786 | 8.59394 | 371 ft | 1 kts | 340° |
| 2026-05-08 19:12 | 50.04815 | 8.59377 | 370 ft | 9 kts | 340° |
| 2026-05-08 19:12 | 50.04904 | 8.59372 | 370 ft | 17 kts | 9° |
| 2026-05-08 19:12 | 50.05023 | 8.59323 | 365 ft | 14 kts | 339° |
| 2026-05-08 19:12 | 50.05076 | 8.59207 | 360 ft | 15 kts | 259° |
| 2026-05-08 19:13 | 50.05047 | 8.59076 | 363 ft | 12 kts | 249° |
| 2026-05-08 19:13 | 50.05051 | 8.58983 | 360 ft | 4 kts | 336° |
| 2026-05-08 19:13 | 50.05080 | 8.58967 | 366 ft | 4 kts | 339° |
| 2026-05-08 19:13 | 50.05099 | 8.58956 | 358 ft | 1 kts | 340° |
| 2026-05-08 19:14 | 50.05100 | 8.58956 | 358 ft | 0 kts | 340° |